Terminal Aerodrome Forecast
Issued by NWS

Home | Current Version | Previous Version | Text Only | Print | Product List | Glossary Off
Versions: 1 2 3 4 5 6 7 8 9 10 11 12 13 14 15 16 17 18 19 20 21 22 23 24 25 26 27 28 29

000
FTUS43 KICT 180500
TAFCNU
TAF
KCNU 180520Z 1806/1906 07007KT 6SM BR SCT070
     FM180800 07006KT 4SM BR VCTS BKN010CB OVC050
     FM181200 08007KT 2SM BR OVC004
     FM181500 07007KT 6SM BR OVC012
     FM181800 09008KT P6SM FEW025=

USA.gov is the U.S. government's official web portal to all federal, state and local government web resources and services.